Time,TemperatureF,DewpointF,PressureIn,WindDirection,WindDirectionDegrees,WindSpeedMPH,WindSpeedGustMPH,Humidity,HourlyPrecipIn,Conditions,Clouds,dailyrainin,SoftwareType,DateUTC
2014-09-20 00:04:00,62.6,54.2,30.06,ENE,66,0.0,5.0,74,0.00,,,0.00,Wunderground v.1.13,2014-09-20 04:04:00,
2014-09-20 00:09:00,62.4,54.0,30.06,ENE,66,0.0,5.0,74,0.00,,,0.00,Wunderground v.1.13,2014-09-20 04:09:00,
2014-09-20 00:19:00,62.1,54.1,30.05,ENE,65,0.0,5.0,75,0.00,,,0.00,Wunderground v.1.13,2014-09-20 04:19:00,
2014-09-20 00:24:00,62.1,54.4,30.05,ENE,66,0.0,5.0,76,0.00,,,0.00,Wunderground v.1.13,2014-09-20 04:24:00,
2014-09-20 00:34:00,61.6,54.0,30.05,ENE,65,0.0,5.0,76,0.00,,,0.00,Wunderground v.1.13,2014-09-20 04:34:00,
2014-09-20 00:39:00,61.5,54.2,30.05,ENE,65,0.0,5.0,77,0.00,,,0.00,Wunderground v.1.13,2014-09-20 04:39:00,
2014-09-20 00:49:00,61.3,54.0,30.05,ENE,65,0.0,5.0,77,0.00,,,0.00,Wunderground v.1.13,2014-09-20 04:49:00,
2014-09-20 00:59:00,61.2,54.3,30.05,ENE,66,0.0,5.0,78,0.00,,,0.00,Wunderground v.1.13,2014-09-20 04:59:00,
2014-09-20 01:04:00,61.0,54.1,30.05,ENE,65,0.0,5.0,78,0.00,,,0.00,Wunderground v.1.13,2014-09-20 05:04:00,
2014-09-20 01:09:00,60.7,54.1,30.05,ENE,66,0.0,5.0,79,0.00,,,0.00,Wunderground v.1.13,2014-09-20 05:09:00,
2014-09-20 01:19:00,60.5,54.0,30.05,ENE,65,0.0,5.0,79,0.00,,,0.00,Wunderground v.1.13,2014-09-20 05:19:00,
2014-09-20 01:29:00,60.4,54.2,30.05,ENE,66,0.0,5.0,80,0.00,,,0.00,Wunderground v.1.13,2014-09-20 05:29:00,
2014-09-20 01:39:00,60.1,53.9,30.05,ENE,65,0.0,5.0,80,0.00,,,0.00,Wunderground v.1.13,2014-09-20 05:39:00,
2014-09-20 01:44:00,60.1,53.9,30.05,ENE,65,0.0,5.0,80,0.00,,,0.00,Wunderground v.1.13,2014-09-20 05:44:00,
2014-09-20 01:49:00,59.9,54.1,30.05,ENE,65,0.0,5.0,81,0.00,,,0.00,Wunderground v.1.13,2014-09-20 05:49:00,
2014-09-20 01:59:00,59.6,53.8,30.05,ENE,65,0.0,5.0,81,0.00,,,0.00,Wunderground v.1.13,2014-09-20 05:59:00,
2014-09-20 02:09:00,59.5,54.0,30.04,ENE,65,0.0,5.0,82,0.00,,,0.00,Wunderground v.1.13,2014-09-20 06:09:00,
2014-09-20 02:14:00,59.5,54.0,30.04,ENE,65,0.0,5.0,82,0.00,,,0.00,Wunderground v.1.13,2014-09-20 06:14:00,
2014-09-20 02:24:00,59.5,54.0,30.04,ENE,65,0.0,5.0,82,0.00,,,0.00,Wunderground v.1.13,2014-09-20 06:24:00,
2014-09-20 02:29:00,59.5,54.0,30.04,ENE,66,0.0,5.0,82,0.00,,,0.00,Wunderground v.1.13,2014-09-20 06:29:00,
2014-09-20 02:39:00,59.3,53.8,30.03,ENE,66,0.0,5.0,82,0.00,,,0.00,Wunderground v.1.13,2014-09-20 06:39:00,
2014-09-20 02:49:00,59.0,53.5,30.03,ENE,65,0.0,5.0,82,0.00,,,0.00,Wunderground v.1.13,2014-09-20 06:49:00,
2014-09-20 02:59:00,58.9,53.7,30.03,ENE,65,0.0,5.0,83,0.00,,,0.00,Wunderground v.1.13,2014-09-20 06:59:00,
2014-09-20 03:04:00,58.7,53.5,30.03,ENE,65,0.0,5.0,83,0.00,,,0.00,Wunderground v.1.13,2014-09-20 07:04:00,
2014-09-20 03:14:00,58.6,53.5,30.03,ENE,65,0.0,5.0,83,0.00,,,0.00,Wunderground v.1.13,2014-09-20 07:14:00,
2014-09-20 03:19:00,58.6,53.8,30.03,ENE,66,0.0,5.0,84,0.00,,,0.00,Wunderground v.1.13,2014-09-20 07:19:00,
2014-09-20 03:29:00,58.6,53.8,30.03,ENE,65,0.0,5.0,84,0.00,,,0.00,Wunderground v.1.13,2014-09-20 07:29:00,
2014-09-20 03:39:00,58.4,53.6,30.02,ENE,66,0.0,5.0,84,0.00,,,0.00,Wunderground v.1.13,2014-09-20 07:39:00,
2014-09-20 03:44:00,58.6,54.1,30.02,ENE,66,0.0,5.0,85,0.00,,,0.00,Wunderground v.1.13,2014-09-20 07:44:00,
2014-09-20 03:54:00,59.3,55.7,30.02,ENE,66,0.0,5.0,88,0.00,,,0.00,Wunderground v.1.13,2014-09-20 07:54:00,
2014-09-20 03:59:00,59.3,55.4,30.02,ENE,65,0.0,5.0,87,0.00,,,0.00,Wunderground v.1.13,2014-09-20 07:59:00,
2014-09-20 04:09:00,59.2,55.0,30.02,ENE,66,0.0,5.0,86,0.00,,,0.00,Wunderground v.1.13,2014-09-20 08:09:00,
2014-09-20 04:19:00,59.0,54.8,30.02,ENE,66,0.0,5.0,86,0.00,,,0.00,Wunderground v.1.13,2014-09-20 08:19:00,
2014-09-20 04:24:00,58.9,54.7,30.02,ENE,65,0.0,5.0,86,0.00,,,0.00,Wunderground v.1.13,2014-09-20 08:24:00,
2014-09-20 04:34:00,58.7,54.5,30.02,ENE,65,0.0,5.0,86,0.00,,,0.00,Wunderground v.1.13,2014-09-20 08:34:00,
2014-09-20 04:39:00,58.9,54.7,30.02,ENE,66,0.0,5.0,86,0.00,,,0.00,Wunderground v.1.13,2014-09-20 08:39:00,
2014-09-20 04:49:00,59.2,55.3,30.03,ENE,66,0.0,5.0,87,0.00,,,0.00,Wunderground v.1.13,2014-09-20 08:49:00,
2014-09-20 04:59:00,59.6,56.0,30.03,ENE,65,0.0,5.0,88,0.00,,,0.00,Wunderground v.1.13,2014-09-20 08:59:00,
2014-09-20 05:04:00,59.6,56.0,30.03,ENE,65,0.0,5.0,88,0.00,,,0.00,Wunderground v.1.13,2014-09-20 09:04:00,
2014-09-20 05:14:00,59.6,56.0,30.03,ENE,65,0.0,5.0,88,0.00,,,0.00,Wunderground v.1.13,2014-09-20 09:14:00,
2014-09-20 05:19:00,59.8,56.2,30.03,ENE,66,0.0,5.0,88,0.00,,,0.00,Wunderground v.1.13,2014-09-20 09:19:00,
2014-09-20 05:29:00,59.6,56.0,30.03,ENE,65,0.0,5.0,88,0.00,,,0.00,Wunderground v.1.13,2014-09-20 09:29:00,
2014-09-20 05:34:00,59.8,56.2,30.03,ENE,66,0.0,5.0,88,0.00,,,0.00,Wunderground v.1.13,2014-09-20 09:34:00,
2014-09-20 05:44:00,59.8,56.2,30.03,ENE,65,0.0,5.0,88,0.00,,,0.00,Wunderground v.1.13,2014-09-20 09:44:00,
2014-09-20 05:49:00,59.9,56.3,30.03,ENE,65,0.0,5.0,88,0.00,,,0.00,Wunderground v.1.13,2014-09-20 09:49:00,
2014-09-20 05:59:00,59.8,55.9,30.03,ENE,65,0.0,5.0,87,0.00,,,0.00,Wunderground v.1.13,2014-09-20 09:59:00,
2014-09-20 06:04:00,59.8,55.9,30.04,ENE,65,0.0,5.0,87,0.00,,,0.00,Wunderground v.1.13,2014-09-20 10:04:00,
2014-09-20 06:14:00,59.8,56.2,30.04,ENE,65,0.0,5.0,88,0.00,,,0.00,Wunderground v.1.13,2014-09-20 10:14:00,
2014-09-20 06:19:00,59.8,56.2,30.03,ENE,66,0.0,5.0,88,0.00,,,0.00,Wunderground v.1.13,2014-09-20 10:19:00,
2014-09-20 06:29:00,60.1,56.8,30.03,ENE,65,0.0,5.0,89,0.00,,,0.00,Wunderground v.1.13,2014-09-20 10:29:00,
2014-09-20 06:34:00,60.4,57.1,30.04,ENE,65,0.0,5.0,89,0.00,,,0.00,Wunderground v.1.13,2014-09-20 10:34:00,
2014-09-20 06:44:00,60.4,57.1,30.04,ENE,66,0.0,5.0,89,0.00,,,0.00,Wunderground v.1.13,2014-09-20 10:44:00,
2014-09-20 06:49:00,60.4,56.8,30.04,ENE,65,0.0,5.0,88,0.00,,,0.00,Wunderground v.1.13,2014-09-20 10:49:00,
2014-09-20 06:59:00,60.4,56.8,30.04,ENE,66,1.0,1.0,88,0.00,,,0.00,Wunderground v.1.13,2014-09-20 10:59:00,
2014-09-20 07:04:00,60.7,56.8,30.04,ENE,65,1.0,1.0,87,0.00,,,0.00,Wunderground v.1.13,2014-09-20 11:04:00,
2014-09-20 07:14:00,60.9,56.7,30.04,ENE,65,0.0,5.0,86,0.00,,,0.00,Wunderground v.1.13,2014-09-20 11:14:00,
2014-09-20 07:19:00,60.9,56.7,30.05,ENE,66,0.0,5.0,86,0.00,,,0.00,Wunderground v.1.13,2014-09-20 11:19:00,
2014-09-20 07:29:00,60.7,56.2,30.05,ENE,65,0.0,5.0,85,0.00,,,0.00,Wunderground v.1.13,2014-09-20 11:29:00,
2014-09-20 07:34:00,60.5,56.3,30.05,ENE,66,0.0,5.0,86,0.00,,,0.00,Wunderground v.1.13,2014-09-20 11:34:00,
2014-09-20 07:44:00,60.5,56.3,30.05,ENE,66,0.0,5.0,86,0.00,,,0.00,Wunderground v.1.13,2014-09-20 11:44:00,
2014-09-20 07:49:00,60.5,56.3,30.07,ENE,65,0.0,5.0,86,0.00,,,0.00,Wunderground v.1.13,2014-09-20 11:49:00,
2014-09-20 07:59:00,60.7,56.8,30.07,ENE,65,0.0,5.0,87,0.00,,,0.00,Wunderground v.1.13,2014-09-20 11:59:00,
2014-09-20 08:09:00,61.0,57.1,30.07,ENE,66,0.0,5.0,87,0.00,,,0.00,Wunderground v.1.13,2014-09-20 12:09:00,
2014-09-20 08:14:00,61.2,57.3,30.07,ENE,66,0.0,5.0,87,0.00,,,0.00,Wunderground v.1.13,2014-09-20 12:14:00,
2014-09-20 08:19:00,61.5,57.9,30.07,ENE,65,0.0,5.0,88,0.00,,,0.00,Wunderground v.1.13,2014-09-20 12:19:00,
2014-09-20 08:29:00,61.8,58.2,30.07,ENE,65,0.0,5.0,88,0.00,,,0.00,Wunderground v.1.13,2014-09-20 12:29:00,
2014-09-20 08:34:00,62.1,58.2,30.07,ENE,65,0.0,5.0,87,0.00,,,0.00,Wunderground v.1.13,2014-09-20 12:34:00,
2014-09-20 08:44:00,63.1,58.8,30.07,ENE,66,1.0,1.0,86,0.00,,,0.00,Wunderground v.1.13,2014-09-20 12:44:00,
2014-09-20 08:54:00,64.0,59.1,30.07,ESE,102,1.0,1.0,84,0.00,,,0.00,Wunderground v.1.13,2014-09-20 12:54:00,
2014-09-20 08:59:00,64.3,59.0,30.07,ESE,102,0.0,5.0,83,0.00,,,0.00,Wunderground v.1.13,2014-09-20 12:59:00,
2014-09-20 09:09:00,65.5,59.9,30.06,East,100,0.0,5.0,82,0.00,,,0.00,Wunderground v.1.13,2014-09-20 13:09:00,
2014-09-20 09:14:00,65.8,59.8,30.06,East,99,0.0,5.0,81,0.00,,,0.00,Wunderground v.1.13,2014-09-20 13:14:00,
2014-09-20 09:24:00,67.3,60.9,30.07,NE,55,1.0,1.0,80,0.00,,,0.00,Wunderground v.1.13,2014-09-20 13:24:00,
2014-09-20 09:29:00,68.3,60.8,30.07,NE,55,0.0,5.0,77,0.00,,,0.00,Wunderground v.1.13,2014-09-20 13:29:00,
2014-09-20 09:39:00,69.6,61.3,30.06,East,99,0.0,5.0,75,0.00,,,0.00,Wunderground v.1.13,2014-09-20 13:39:00,
2014-09-20 09:44:00,70.6,61.5,30.06,East,95,1.0,1.0,73,0.00,,,0.00,Wunderground v.1.13,2014-09-20 13:44:00,
2014-09-20 09:54:00,72.3,62.0,30.06,SSE,151,1.0,5.0,70,0.00,,,0.00,Wunderground v.1.13,2014-09-20 13:54:00,
2014-09-20 09:59:00,73.2,62.4,30.06,ESE,114,3.0,7.0,69,0.00,,,0.00,Wunderground v.1.13,2014-09-20 13:59:00,
2014-09-20 10:04:00,73.9,62.2,30.06,SE,130,5.0,7.0,67,0.00,,,0.00,Wunderground v.1.13,2014-09-20 14:04:00,
2014-09-20 10:09:00,74.2,62.1,30.06,SE,130,7.0,7.0,66,0.00,,,0.00,Wunderground v.1.13,2014-09-20 14:09:00,
2014-09-20 10:14:00,74.4,62.3,30.06,East,92,7.0,7.0,66,0.00,,,0.00,Wunderground v.1.13,2014-09-20 14:14:00,
2014-09-20 10:24:00,74.6,62.1,30.06,East,92,7.0,11.0,65,0.00,,,0.00,Wunderground v.1.13,2014-09-20 14:24:00,
2014-09-20 10:34:00,74.9,62.3,30.05,SE,130,7.0,7.0,65,0.00,,,0.00,Wunderground v.1.13,2014-09-20 14:34:00,
2014-09-20 10:39:00,75.1,62.5,30.05,SE,140,8.0,8.0,65,0.00,,,0.00,Wunderground v.1.13,2014-09-20 14:39:00,
2014-09-20 10:49:00,75.4,62.8,30.06,East,100,7.0,7.0,65,0.00,,,0.00,Wunderground v.1.13,2014-09-20 14:49:00,
2014-09-20 10:54:00,75.8,62.8,30.06,South,172,7.0,7.0,64,0.00,,,0.00,Wunderground v.1.13,2014-09-20 14:54:00,
2014-09-20 11:04:00,76.3,62.8,30.05,South,182,8.0,14.0,63,0.00,,,0.00,Wunderground v.1.13,2014-09-20 15:04:00,
2014-09-20 11:14:00,76.3,62.8,30.05,East,93,10.0,11.0,63,0.00,,,0.00,Wunderground v.1.13,2014-09-20 15:14:00,
2014-09-20 11:19:00,76.5,62.5,30.05,East,96,10.0,13.0,62,0.00,,,0.00,Wunderground v.1.13,2014-09-20 15:19:00,
2014-09-20 11:24:00,76.8,62.8,30.05,ESE,121,9.0,9.0,62,0.00,,,0.00,Wunderground v.1.13,2014-09-20 15:24:00,
2014-09-20 11:29:00,77.2,62.7,30.05,ESE,121,9.0,9.0,61,0.00,,,0.00,Wunderground v.1.13,2014-09-20 15:29:00,
2014-09-20 11:34:00,77.7,62.7,30.04,NE,52,8.0,8.0,60,0.00,,,0.00,Wunderground v.1.13,2014-09-20 15:34:00,
2014-09-20 11:44:00,77.9,62.9,30.04,SE,127,7.0,11.0,60,0.00,,,0.00,Wunderground v.1.13,2014-09-20 15:44:00,
2014-09-20 11:54:00,77.7,62.7,30.04,SE,127,9.0,9.0,60,0.00,,,0.00,Wunderground v.1.13,2014-09-20 15:54:00,
2014-09-20 11:59:00,78.1,63.1,30.04,South,175,7.0,7.0,60,0.00,,,0.00,Wunderground v.1.13,2014-09-20 15:59:00,
2014-09-20 12:09:00,79.2,63.1,30.04,ESE,114,5.0,6.0,58,0.00,,,0.00,Wunderground v.1.13,2014-09-20 16:09:00,
2014-09-20 12:14:00,79.8,62.7,30.04,ESE,104,6.0,6.0,56,0.00,,,0.00,Wunderground v.1.13,2014-09-20 16:14:00,
2014-09-20 12:24:00,80.3,62.7,30.03,ESE,121,6.0,6.0,55,0.00,,,0.00,Wunderground v.1.13,2014-09-20 16:24:00,
2014-09-20 12:34:00,79.9,62.3,30.03,ESE,114,6.0,6.0,55,0.00,,,0.00,Wunderground v.1.13,2014-09-20 16:34:00,
2014-09-20 12:39:00,79.8,63.2,30.03,SE,136,6.0,6.0,57,0.00,,,0.00,Wunderground v.1.13,2014-09-20 16:39:00,
2014-09-20 12:44:00,79.9,63.3,30.03,ESE,117,4.0,8.0,57,0.00,,,0.00,Wunderground v.1.13,2014-09-20 16:44:00,
2014-09-20 12:49:00,79.8,62.7,30.03,SSE,154,5.0,9.0,56,0.00,,,0.00,Wunderground v.1.13,2014-09-20 16:49:00,
2014-09-20 12:54:00,79.6,63.0,30.03,ESE,116,7.0,7.0,57,0.00,,,0.00,Wunderground v.1.13,2014-09-20 16:54:00,
2014-09-20 13:04:00,79.8,62.2,30.02,SE,130,6.0,11.0,55,0.00,,,0.00,Wunderground v.1.13,2014-09-20 17:04:00,
2014-09-20 13:09:00,79.8,62.7,30.02,ESE,114,8.0,8.0,56,0.00,,,0.00,Wunderground v.1.13,2014-09-20 17:09:00,
2014-09-20 13:14:00,79.8,62.7,30.02,SE,144,7.0,7.0,56,0.00,,,0.00,Wunderground v.1.13,2014-09-20 17:14:00,
2014-09-20 13:24:00,80.5,62.8,30.02,SE,137,5.0,5.0,55,0.00,,,0.00,Wunderground v.1.13,2014-09-20 17:24:00,
2014-09-20 13:34:00,80.9,63.2,30.01,SE,141,2.0,2.0,55,0.00,,,0.00,Wunderground v.1.13,2014-09-20 17:34:00,
2014-09-20 13:39:00,81.2,63.0,30.01,South,176,2.0,2.0,54,0.00,,,0.00,Wunderground v.1.13,2014-09-20 17:39:00,
2014-09-20 13:49:00,82.0,62.6,30.00,SE,138,1.0,1.0,52,0.00,,,0.00,Wunderground v.1.13,2014-09-20 17:49:00,
2014-09-20 13:54:00,81.8,63.0,30.00,SE,136,2.0,2.0,53,0.00,,,0.00,Wunderground v.1.13,2014-09-20 17:54:00,
2014-09-20 14:04:00,81.2,62.4,30.00,ESE,116,5.0,5.0,53,0.00,,,0.00,Wunderground v.1.13,2014-09-20 18:04:00,
2014-09-20 14:09:00,81.2,62.4,30.00,SE,138,4.0,4.0,53,0.00,,,0.00,Wunderground v.1.13,2014-09-20 18:09:00,
2014-09-20 14:19:00,81.8,63.0,29.98,SE,136,2.0,6.0,53,0.00,,,0.00,Wunderground v.1.13,2014-09-20 18:19:00,
2014-09-20 14:24:00,82.8,62.8,29.98,NE,52,2.0,2.0,51,0.00,,,0.00,Wunderground v.1.13,2014-09-20 18:24:00,
2014-09-20 14:34:00,83.0,62.4,29.98,ESE,121,5.0,5.0,50,0.00,,,0.00,Wunderground v.1.13,2014-09-20 18:34:00,
2014-09-20 14:44:00,82.6,63.2,29.98,ESE,119,5.0,7.0,52,0.00,,,0.00,Wunderground v.1.13,2014-09-20 18:44:00,
2014-09-20 14:49:00,82.6,62.6,29.97,SE,141,6.0,6.0,51,0.00,,,0.00,Wunderground v.1.13,2014-09-20 18:49:00,
2014-09-20 14:59:00,83.4,62.2,29.97,SE,138,6.0,8.0,49,0.00,,,0.00,Wunderground v.1.13,2014-09-20 18:59:00,
2014-09-20 15:04:00,83.4,61.7,29.97,ESE,104,7.0,7.0,48,0.00,,,0.00,Wunderground v.1.13,2014-09-20 19:04:00,
2014-09-20 15:14:00,84.1,61.1,29.97,ESE,102,6.0,7.0,46,0.00,,,0.00,Wunderground v.1.13,2014-09-20 19:14:00,
2014-09-20 15:19:00,84.3,61.9,29.95,ESE,117,6.0,6.0,47,0.00,,,0.00,Wunderground v.1.13,2014-09-20 19:19:00,
2014-09-20 15:34:00,84.3,61.9,29.94,East,100,6.0,7.0,47,0.00,,,0.00,Wunderground v.1.13,2014-09-20 19:34:00,
2014-09-20 15:39:00,84.3,61.3,29.94,SE,128,7.0,10.0,46,0.00,,,0.00,Wunderground v.1.13,2014-09-20 19:39:00,
2014-09-20 15:44:00,84.1,61.1,29.94,ESE,104,7.0,7.0,46,0.00,,,0.00,Wunderground v.1.13,2014-09-20 19:44:00,
2014-09-20 15:54:00,84.0,61.6,29.94,ESE,104,7.0,7.0,47,0.00,,,0.00,Wunderground v.1.13,2014-09-20 19:54:00,
2014-09-20 16:04:00,85.1,61.4,29.93,ESE,103,5.0,8.0,45,0.00,,,0.00,Wunderground v.1.13,2014-09-20 20:04:00,
2014-09-20 16:09:00,85.5,61.1,29.93,SE,141,6.0,9.0,44,0.00,,,0.00,Wunderground v.1.13,2014-09-20 20:09:00,
2014-09-20 16:14:00,85.3,62.2,29.93,ESE,110,6.0,7.0,46,0.00,,,0.00,Wunderground v.1.13,2014-09-20 20:14:00,
2014-09-20 16:24:00,85.1,61.4,29.92,SE,137,7.0,11.0,45,0.00,,,0.00,Wunderground v.1.13,2014-09-20 20:24:00,
2014-09-20 16:29:00,84.3,61.9,29.92,NE,52,7.0,10.0,47,0.00,,,0.00,Wunderground v.1.13,2014-09-20 20:29:00,
2014-09-20 16:39:00,84.5,61.4,29.92,ESE,113,6.0,10.0,46,0.00,,,0.00,Wunderground v.1.13,2014-09-20 20:39:00,
2014-09-20 16:44:00,84.9,61.2,29.92,SE,128,6.0,8.0,45,0.00,,,0.00,Wunderground v.1.13,2014-09-20 20:44:00,
2014-09-20 16:54:00,84.7,61.0,29.91,East,83,6.0,9.0,45,0.00,,,0.00,Wunderground v.1.13,2014-09-20 20:54:00,
2014-09-20 16:59:00,84.7,61.0,29.91,SE,126,5.0,6.0,45,0.00,,,0.00,Wunderground v.1.13,2014-09-20 20:59:00,
2014-09-20 17:04:00,84.5,60.2,29.91,ESE,121,6.0,6.0,44,0.00,,,0.00,Wunderground v.1.13,2014-09-20 21:04:00,
2014-09-20 17:09:00,84.9,59.9,29.91,ESE,113,6.0,6.0,43,0.00,,,0.00,Wunderground v.1.13,2014-09-20 21:09:00,
2014-09-20 17:14:00,84.9,59.9,29.91,SE,124,6.0,6.0,43,0.00,,,0.00,Wunderground v.1.13,2014-09-20 21:14:00,
2014-09-20 17:24:00,84.5,59.5,29.91,SE,143,7.0,9.0,43,0.00,,,0.00,Wunderground v.1.13,2014-09-20 21:24:00,
2014-09-20 17:34:00,84.1,60.5,29.90,ESE,120,6.0,6.0,45,0.00,,,0.00,Wunderground v.1.13,2014-09-20 21:34:00,
2014-09-20 17:39:00,84.0,60.4,29.90,ESE,104,6.0,8.0,45,0.00,,,0.00,Wunderground v.1.13,2014-09-20 21:39:00,
2014-09-20 17:49:00,83.2,60.9,29.90,ESE,103,6.0,6.0,47,0.00,,,0.00,Wunderground v.1.13,2014-09-20 21:49:00,
2014-09-20 17:59:00,83.4,60.4,29.90,North,8,4.0,4.0,46,0.00,,,0.00,Wunderground v.1.13,2014-09-20 21:59:00,
2014-09-20 18:04:00,83.8,60.2,29.89,ESE,104,5.0,11.0,45,0.00,,,0.00,Wunderground v.1.13,2014-09-20 22:04:00,
2014-09-20 18:14:00,83.2,60.3,29.89,ESE,116,8.0,8.0,46,0.00,,,0.00,Wunderground v.1.13,2014-09-20 22:14:00,
2014-09-20 18:19:00,82.8,60.5,29.89,ESE,113,7.0,7.0,47,0.00,,,0.00,Wunderground v.1.13,2014-09-20 22:19:00,
2014-09-20 18:29:00,82.4,60.7,29.89,SE,137,5.0,9.0,48,0.00,,,0.00,Wunderground v.1.13,2014-09-20 22:29:00,
2014-09-20 18:39:00,82.4,60.7,29.88,ESE,119,6.0,8.0,48,0.00,,,0.00,Wunderground v.1.13,2014-09-20 22:39:00,
2014-09-20 18:49:00,82.4,61.3,29.88,SE,124,5.0,6.0,49,0.00,,,0.00,Wunderground v.1.13,2014-09-20 22:49:00,
2014-09-20 18:54:00,82.2,61.1,29.88,East,92,4.0,8.0,49,0.00,,,0.00,Wunderground v.1.13,2014-09-20 22:54:00,
2014-09-20 18:59:00,81.8,61.3,29.88,ESE,114,4.0,5.0,50,0.00,,,0.00,Wunderground v.1.13,2014-09-20 22:59:00,
2014-09-20 19:09:00,81.6,61.2,29.89,SE,130,5.0,6.0,50,0.00,,,0.00,Wunderground v.1.13,2014-09-20 23:09:00,
2014-09-20 19:19:00,80.9,61.6,29.89,ESE,121,5.0,5.0,52,0.00,,,0.00,Wunderground v.1.13,2014-09-20 23:19:00,
2014-09-20 19:24:00,80.9,62.2,29.89,ESE,116,4.0,5.0,53,0.00,,,0.00,Wunderground v.1.13,2014-09-20 23:24:00,
2014-09-20 19:34:00,80.5,61.8,29.90,SE,124,3.0,5.0,53,0.00,,,0.00,Wunderground v.1.13,2014-09-20 23:34:00,
2014-09-20 19:39:00,80.3,62.1,29.90,ESE,114,3.0,3.0,54,0.00,,,0.00,Wunderground v.1.13,2014-09-20 23:39:00,
2014-09-20 19:49:00,79.9,62.3,29.91,ESE,117,2.0,5.0,55,0.00,,,0.00,Wunderground v.1.13,2014-09-20 23:49:00,
2014-09-20 19:54:00,79.6,62.5,29.91,ESE,117,3.0,5.0,56,0.00,,,0.00,Wunderground v.1.13,2014-09-20 23:54:00,
2014-09-20 20:04:00,79.0,62.5,29.91,ESE,119,3.0,5.0,57,0.00,,,0.00,Wunderground v.1.13,2014-09-21 00:04:00,
2014-09-20 20:14:00,79.4,62.3,29.91,ESE,120,1.0,1.0,56,0.00,,,0.00,Wunderground v.1.13,2014-09-21 00:14:00,
2014-09-20 20:19:00,79.8,62.7,29.91,ESE,110,0.0,5.0,56,0.00,,,0.00,Wunderground v.1.13,2014-09-21 00:19:00,
2014-09-20 20:29:00,79.9,62.8,29.91,ESE,113,0.0,5.0,56,0.00,,,0.00,Wunderground v.1.13,2014-09-21 00:29:00,
2014-09-20 20:34:00,79.6,63.0,29.92,ESE,110,0.0,5.0,57,0.00,,,0.00,Wunderground v.1.13,2014-09-21 00:34:00,
2014-09-20 20:44:00,79.0,63.0,29.92,ESE,112,0.0,5.0,58,0.00,,,0.00,Wunderground v.1.13,2014-09-21 00:44:00,
2014-09-20 20:49:00,78.6,63.1,29.93,ESE,113,0.0,5.0,59,0.00,,,0.00,Wunderground v.1.13,2014-09-21 00:49:00,
2014-09-20 20:59:00,78.5,63.0,29.93,ESE,114,0.0,5.0,59,0.00,,,0.00,Wunderground v.1.13,2014-09-21 00:59:00,
2014-09-20 21:04:00,78.5,63.0,29.93,ESE,120,0.0,5.0,59,0.00,,,0.00,Wunderground v.1.13,2014-09-21 01:04:00,
2014-09-20 21:14:00,78.6,63.1,29.93,ESE,119,1.0,1.0,59,0.00,,,0.00,Wunderground v.1.13,2014-09-21 01:14:00,
2014-09-20 21:24:00,78.3,62.8,29.93,ESE,117,0.0,5.0,59,0.00,,,0.00,Wunderground v.1.13,2014-09-21 01:24:00,
2014-09-20 21:29:00,78.1,62.6,29.93,ESE,109,0.0,5.0,59,0.00,,,0.00,Wunderground v.1.13,2014-09-21 01:29:00,
2014-09-20 21:39:00,78.1,62.6,29.93,East,79,1.0,1.0,59,0.00,,,0.00,Wunderground v.1.13,2014-09-21 01:39:00,
2014-09-20 21:44:00,77.9,62.9,29.93,East,90,0.0,5.0,60,0.00,,,0.00,Wunderground v.1.13,2014-09-21 01:44:00,
2014-09-20 21:54:00,77.4,62.9,29.92,ESE,110,1.0,1.0,61,0.00,,,0.00,Wunderground v.1.13,2014-09-21 01:54:00,
2014-09-20 22:04:00,76.8,62.8,29.91,East,92,1.0,1.0,62,0.00,,,0.00,Wunderground v.1.13,2014-09-21 02:04:00,
2014-09-20 22:09:00,76.5,63.0,29.91,ENE,73,0.0,5.0,63,0.00,,,0.00,Wunderground v.1.13,2014-09-21 02:09:00,
2014-09-20 22:19:00,76.3,62.8,29.90,East,83,1.0,1.0,63,0.00,,,0.00,Wunderground v.1.13,2014-09-21 02:19:00,
2014-09-20 22:24:00,76.1,63.0,29.90,ESE,120,1.0,1.0,64,0.00,,,0.00,Wunderground v.1.13,2014-09-21 02:24:00,
2014-09-20 22:34:00,75.8,62.8,29.90,ESE,123,2.0,5.0,64,0.00,,,0.00,Wunderground v.1.13,2014-09-21 02:34:00,
2014-09-20 22:39:00,75.3,63.2,29.90,East,93,1.0,1.0,66,0.00,,,0.00,Wunderground v.1.13,2014-09-21 02:39:00,
2014-09-20 22:49:00,74.9,63.2,29.90,ESE,116,1.0,5.0,67,0.00,,,0.00,Wunderground v.1.13,2014-09-21 02:49:00,
2014-09-20 22:54:00,74.4,63.1,29.90,ESE,114,2.0,5.0,68,0.00,,,0.00,Wunderground v.1.13,2014-09-21 02:54:00,